sensor_id;sensor_type;location;lat;lon;timestamp;temperature;humidity
9790;DHT22;4934;50.852;8.098;2024-03-02T00:01:40;4.60;99.90
9790;DHT22;4934;50.852;8.098;2024-03-02T00:04:07;4.60;99.90
9790;DHT22;4934;50.852;8.098;2024-03-02T00:06:33;4.50;99.90
9790;DHT22;4934;50.852;8.098;2024-03-02T00:08:59;4.60;99.90
9790;DHT22;4934;50.852;8.098;2024-03-02T00:11:24;4.60;99.90
9790;DHT22;4934;50.852;8.098;2024-03-02T00:13:53;4.60;99.90
9790;DHT22;4934;50.852;8.098;2024-03-02T00:16:19;4.60;99.90
9790;DHT22;4934;50.852;8.098;2024-03-02T00:18:45;4.60;1.00
9790;DHT22;4934;50.852;8.098;2024-03-02T00:21:11;4.60;1.00
9790;DHT22;4934;50.852;8.098;2024-03-02T00:23:38;4.60;1.00
9790;DHT22;4934;50.852;8.098;2024-03-02T00:26:05;4.60;1.00
9790;DHT22;4934;50.852;8.098;2024-03-02T00:28:35;4.60;1.00
9790;DHT22;4934;50.852;8.098;2024-03-02T00:31:05;4.70;1.00
9790;DHT22;4934;50.852;8.098;2024-03-02T00:33:44;4.60;1.00
9790;DHT22;4934;50.852;8.098;2024-03-02T00:36:26;4.70;1.00
9790;DHT22;4934;50.852;8.098;2024-03-02T00:38:55;4.70;1.00
9790;DHT22;4934;50.852;8.098;2024-03-02T00:41:31;4.70;1.00
9790;DHT22;4934;50.852;8.098;2024-03-02T00:44:04;4.60;1.00
9790;DHT22;4934;50.852;8.098;2024-03-02T00:46:35;4.60;1.00
9790;DHT22;4934;50.852;8.098;2024-03-02T00:49:10;4.50;1.00
9790;DHT22;4934;50.852;8.098;2024-03-02T00:51:37;4.50;40.90
9790;DHT22;4934;50.852;8.098;2024-03-02T00:54:05;4.60;29.10
9790;DHT22;4934;50.852;8.098;2024-03-02T00:56:31;4.60;1.00
9790;DHT22;4934;50.852;8.098;2024-03-02T00:58:57;4.60;1.00
9790;DHT22;4934;50.852;8.098;2024-03-02T01:01:23;4.60;1.00
9790;DHT22;4934;50.852;8.098;2024-03-02T01:03:49;4.70;1.00
9790;DHT22;4934;50.852;8.098;2024-03-02T01:06:16;4.70;1.00
9790;DHT22;4934;50.852;8.098;2024-03-02T01:08:42;4.80;1.00
9790;DHT22;4934;50.852;8.098;2024-03-02T01:11:07;4.80;1.00
9790;DHT22;4934;50.852;8.098;2024-03-02T01:13:33;4.90;1.00
9790;DHT22;4934;50.852;8.098;2024-03-02T01:16:00;4.80;1.00
9790;DHT22;4934;50.852;8.098;2024-03-02T01:18:26;4.90;3.50
9790;DHT22;4934;50.852;8.098;2024-03-02T01:20:51;4.90;25.10
9790;DHT22;4934;50.852;8.098;2024-03-02T01:23:19;4.90;1.00
9790;DHT22;4934;50.852;8.098;2024-03-02T01:25:45;4.90;10.90
9790;DHT22;4934;50.852;8.098;2024-03-02T01:28:12;4.90;1.00
9790;DHT22;4934;50.852;8.098;2024-03-02T01:30:37;4.90;1.00
9790;DHT22;4934;50.852;8.098;2024-03-02T01:33:03;5.00;60.60
9790;DHT22;4934;50.852;8.098;2024-03-02T01:35:31;5.00;86.70
9790;DHT22;4934;50.852;8.098;2024-03-02T01:37:56;5.00;32.60
9790;DHT22;4934;50.852;8.098;2024-03-02T01:40:22;5.00;1.00
9790;DHT22;4934;50.852;8.098;2024-03-02T01:42:52;5.00;99.90
9790;DHT22;4934;50.852;8.098;2024-03-02T01:45:17;5.10;21.90
9790;DHT22;4934;50.852;8.098;2024-03-02T01:47:43;5.10;1.00
9790;DHT22;4934;50.852;8.098;2024-03-02T01:50:11;5.10;1.00
9790;DHT22;4934;50.852;8.098;2024-03-02T01:52:36;5.00;19.60
9790;DHT22;4934;50.852;8.098;2024-03-02T01:55:03;5.20;1.00
9790;DHT22;4934;50.852;8.098;2024-03-02T01:57:29;5.10;1.00
9790;DHT22;4934;50.852;8.098;2024-03-02T01:59:55;5.20;1.00
9790;DHT22;4934;50.852;8.098;2024-03-02T02:02:21;5.10;1.00
9790;DHT22;4934;50.852;8.098;2024-03-02T02:04:47;5.00;1.00
9790;DHT22;4934;50.852;8.098;2024-03-02T02:07:12;5.00;1.00
9790;DHT22;4934;50.852;8.098;2024-03-02T02:09:42;5.10;1.00
9790;DHT22;4934;50.852;8.098;2024-03-02T02:12:09;5.10;1.00
9790;DHT22;4934;50.852;8.098;2024-03-02T02:14:35;5.10;1.00
9790;DHT22;4934;50.852;8.098;2024-03-02T02:17:01;5.00;1.00
9790;DHT22;4934;50.852;8.098;2024-03-02T02:19:27;5.00;1.00
9790;DHT22;4934;50.852;8.098;2024-03-02T02:21:52;4.90;1.00
9790;DHT22;4934;50.852;8.098;2024-03-02T02:24:18;4.90;1.00
9790;DHT22;4934;50.852;8.098;2024-03-02T02:26:43;4.90;1.00
9790;DHT22;4934;50.852;8.098;2024-03-02T02:29:09;4.90;1.00
9790;DHT22;4934;50.852;8.098;2024-03-02T02:31:39;4.90;1.00
9790;DHT22;4934;50.852;8.098;2024-03-02T02:34:05;5.00;1.00
9790;DHT22;4934;50.852;8.098;2024-03-02T02:36:32;5.00;1.00
9790;DHT22;4934;50.852;8.098;2024-03-02T02:39:02;5.00;1.00
9790;DHT22;4934;50.852;8.098;2024-03-02T02:41:32;5.10;1.00
9790;DHT22;4934;50.852;8.098;2024-03-02T02:43:57;5.10;1.00
9790;DHT22;4934;50.852;8.098;2024-03-02T02:46:23;5.10;1.00
9790;DHT22;4934;50.852;8.098;2024-03-02T02:48:49;5.10;1.00
9790;DHT22;4934;50.852;8.098;2024-03-02T02:51:14;5.10;1.00
9790;DHT22;4934;50.852;8.098;2024-03-02T02:53:40;5.00;1.00
9790;DHT22;4934;50.852;8.098;2024-03-02T02:56:09;5.00;1.00
9790;DHT22;4934;50.852;8.098;2024-03-02T02:58:34;5.00;1.00
9790;DHT22;4934;50.852;8.098;2024-03-02T03:01:01;5.00;1.00
9790;DHT22;4934;50.852;8.098;2024-03-02T03:03:26;4.90;1.00
9790;DHT22;4934;50.852;8.098;2024-03-02T03:05:52;4.90;1.00
9790;DHT22;4934;50.852;8.098;2024-03-02T03:08:17;4.80;1.00
9790;DHT22;4934;50.852;8.098;2024-03-02T03:10:43;4.80;1.00
9790;DHT22;4934;50.852;8.098;2024-03-02T03:13:09;4.70;1.00
9790;DHT22;4934;50.852;8.098;2024-03-02T03:15:35;4.80;1.00
9790;DHT22;4934;50.852;8.098;2024-03-02T03:18:02;4.80;1.00
9790;DHT22;4934;50.852;8.098;2024-03-02T03:20:29;4.70;1.00
9790;DHT22;4934;50.852;8.098;2024-03-02T03:22:55;4.60;1.00
9790;DHT22;4934;50.852;8.098;2024-03-02T03:25:20;4.60;99.90
9790;DHT22;4934;50.852;8.098;2024-03-02T03:27:46;4.60;1.00
9790;DHT22;4934;50.852;8.098;2024-03-02T03:30:12;4.60;1.00
9790;DHT22;4934;50.852;8.098;2024-03-02T03:32:38;4.50;1.00
9790;DHT22;4934;50.852;8.098;2024-03-02T03:35:04;4.40;31.90
9790;DHT22;4934;50.852;8.098;2024-03-02T03:37:30;4.40;15.50
9790;DHT22;4934;50.852;8.098;2024-03-02T03:39:59;4.30;99.90
9790;DHT22;4934;50.852;8.098;2024-03-02T03:42:24;4.30;99.90
9790;DHT22;4934;50.852;8.098;2024-03-02T03:44:50;4.30;99.90
9790;DHT22;4934;50.852;8.098;2024-03-02T03:47:15;4.40;99.90
9790;DHT22;4934;50.852;8.098;2024-03-02T03:49:41;4.30;97.30
9790;DHT22;4934;50.852;8.098;2024-03-02T03:52:07;4.40;99.90
9790;DHT22;4934;50.852;8.098;2024-03-02T03:54:32;4.20;52.90
9790;DHT22;4934;50.852;8.098;2024-03-02T03:56:58;4.30;99.90
9790;DHT22;4934;50.852;8.098;2024-03-02T03:59:23;4.20;99.90
9790;DHT22;4934;50.852;8.098;2024-03-02T04:01:49;4.20;99.90
9790;DHT22;4934;50.852;8.098;2024-03-02T04:04:14;4.10;99.90
9790;DHT22;4934;50.852;8.098;2024-03-02T04:06:40;4.00;99.90
9790;DHT22;4934;50.852;8.098;2024-03-02T04:09:06;4.10;99.90
9790;DHT22;4934;50.852;8.098;2024-03-02T04:11:31;4.10;99.90
9790;DHT22;4934;50.852;8.098;2024-03-02T04:13:57;4.00;99.90
9790;DHT22;4934;50.852;8.098;2024-03-02T04:16:22;4.10;99.90
9790;DHT22;4934;50.852;8.098;2024-03-02T04:18:48;4.00;99.90
9790;DHT22;4934;50.852;8.098;2024-03-02T04:21:14;3.90;99.90
9790;DHT22;4934;50.852;8.098;2024-03-02T04:23:39;3.90;99.90
9790;DHT22;4934;50.852;8.098;2024-03-02T04:26:05;4.00;99.90
9790;DHT22;4934;50.852;8.098;2024-03-02T04:28:30;4.00;99.90
9790;DHT22;4934;50.852;8.098;2024-03-02T04:30:56;4.00;99.90
9790;DHT22;4934;50.852;8.098;2024-03-02T04:33:21;3.90;99.90
9790;DHT22;4934;50.852;8.098;2024-03-02T04:35:47;3.80;99.90
9790;DHT22;4934;50.852;8.098;2024-03-02T04:38:13;3.90;99.90
9790;DHT22;4934;50.852;8.098;2024-03-02T04:40:38;3.90;99.90
9790;DHT22;4934;50.852;8.098;2024-03-02T04:43:04;3.90;99.90
9790;DHT22;4934;50.852;8.098;2024-03-02T04:45:30;3.90;99.90
9790;DHT22;4934;50.852;8.098;2024-03-02T04:47:55;3.90;99.90
9790;DHT22;4934;50.852;8.098;2024-03-02T04:50:21;3.80;99.90
9790;DHT22;4934;50.852;8.098;2024-03-02T04:52:46;3.80;1.00
9790;DHT22;4934;50.852;8.098;2024-03-02T04:55:12;3.80;99.90
9790;DHT22;4934;50.852;8.098;2024-03-02T04:57:52;3.90;1.00
9790;DHT22;4934;50.852;8.098;2024-03-02T05:00:20;3.70;99.90
9790;DHT22;4934;50.852;8.098;2024-03-02T05:02:46;3.70;99.90
9790;DHT22;4934;50.852;8.098;2024-03-02T05:05:11;3.60;99.90
9790;DHT22;4934;50.852;8.098;2024-03-02T05:07:37;3.70;99.90
9790;DHT22;4934;50.852;8.098;2024-03-02T05:10:03;3.60;99.90
9790;DHT22;4934;50.852;8.098;2024-03-02T05:12:28;3.70;99.90
9790;DHT22;4934;50.852;8.098;2024-03-02T05:15:20;3.60;1.00
9790;DHT22;4934;50.852;8.098;2024-03-02T05:17:47;3.60;99.90
9790;DHT22;4934;50.852;8.098;2024-03-02T05:20:12;3.60;99.90
9790;DHT22;4934;50.852;8.098;2024-03-02T05:22:38;3.70;99.90
9790;DHT22;4934;50.852;8.098;2024-03-02T05:25:05;3.60;99.90
9790;DHT22;4934;50.852;8.098;2024-03-02T05:27:31;3.50;99.90
9790;DHT22;4934;50.852;8.098;2024-03-02T05:29:58;3.50;99.90
9790;DHT22;4934;50.852;8.098;2024-03-02T05:32:24;3.50;99.90
9790;DHT22;4934;50.852;8.098;2024-03-02T05:34:49;3.60;1.00
9790;DHT22;4934;50.852;8.098;2024-03-02T05:37:16;3.60;99.90
9790;DHT22;4934;50.852;8.098;2024-03-02T05:39:42;3.50;99.90
9790;DHT22;4934;50.852;8.098;2024-03-02T05:42:08;3.30;99.90
9790;DHT22;4934;50.852;8.098;2024-03-02T05:44:35;3.30;99.90
9790;DHT22;4934;50.852;8.098;2024-03-02T05:47:00;3.30;99.90
9790;DHT22;4934;50.852;8.098;2024-03-02T05:49:26;3.30;99.90
9790;DHT22;4934;50.852;8.098;2024-03-02T05:51:51;3.20;99.90
9790;DHT22;4934;50.852;8.098;2024-03-02T05:54:17;3.20;99.90
9790;DHT22;4934;50.852;8.098;2024-03-02T05:56:42;3.30;99.90
9790;DHT22;4934;50.852;8.098;2024-03-02T05:59:08;3.20;99.90
9790;DHT22;4934;50.852;8.098;2024-03-02T06:01:45;3.30;99.90
9790;DHT22;4934;50.852;8.098;2024-03-02T06:04:17;3.40;99.90
9790;DHT22;4934;50.852;8.098;2024-03-02T06:06:42;3.50;99.90
9790;DHT22;4934;50.852;8.098;2024-03-02T06:09:10;3.40;99.90
9790;DHT22;4934;50.852;8.098;2024-03-02T06:11:39;3.40;99.90
9790;DHT22;4934;50.852;8.098;2024-03-02T06:14:08;3.50;99.90
9790;DHT22;4934;50.852;8.098;2024-03-02T06:16:34;3.80;1.00
9790;DHT22;4934;50.852;8.098;2024-03-02T06:19:00;3.90;99.90
9790;DHT22;4934;50.852;8.098;2024-03-02T06:21:27;3.80;99.90
9790;DHT22;4934;50.852;8.098;2024-03-02T06:23:53;3.90;99.90
9790;DHT22;4934;50.852;8.098;2024-03-02T06:26:19;4.00;99.90
9790;DHT22;4934;50.852;8.098;2024-03-02T06:28:45;3.90;99.90
9790;DHT22;4934;50.852;8.098;2024-03-02T06:31:11;3.90;99.90
9790;DHT22;4934;50.852;8.098;2024-03-02T06:33:36;3.90;99.90
9790;DHT22;4934;50.852;8.098;2024-03-02T06:36:02;3.90;99.90
9790;DHT22;4934;50.852;8.098;2024-03-02T06:38:28;3.90;99.90
9790;DHT22;4934;50.852;8.098;2024-03-02T06:40:54;3.90;99.90
9790;DHT22;4934;50.852;8.098;2024-03-02T06:43:21;4.00;99.90
9790;DHT22;4934;50.852;8.098;2024-03-02T06:45:49;4.00;99.90
9790;DHT22;4934;50.852;8.098;2024-03-02T06:48:16;4.00;99.90
9790;DHT22;4934;50.852;8.098;2024-03-02T06:50:48;4.10;99.90
9790;DHT22;4934;50.852;8.098;2024-03-02T06:53:14;4.10;99.90
9790;DHT22;4934;50.852;8.098;2024-03-02T06:55:43;4.20;99.90
9790;DHT22;4934;50.852;8.098;2024-03-02T06:58:09;4.30;99.90
9790;DHT22;4934;50.852;8.098;2024-03-02T07:00:35;4.40;99.90
9790;DHT22;4934;50.852;8.098;2024-03-02T07:03:00;4.40;99.90
9790;DHT22;4934;50.852;8.098;2024-03-02T07:05:26;4.50;99.90
9790;DHT22;4934;50.852;8.098;2024-03-02T07:07:52;4.50;99.90
9790;DHT22;4934;50.852;8.098;2024-03-02T07:10:17;4.60;99.90
9790;DHT22;4934;50.852;8.098;2024-03-02T07:12:43;4.70;99.90
9790;DHT22;4934;50.852;8.098;2024-03-02T07:15:10;4.80;99.90
9790;DHT22;4934;50.852;8.098;2024-03-02T07:17:55;4.80;99.90
9790;DHT22;4934;50.852;8.098;2024-03-02T07:20:21;4.80;80.50
9790;DHT22;4934;50.852;8.098;2024-03-02T07:22:47;4.80;99.90
9790;DHT22;4934;50.852;8.098;2024-03-02T07:25:12;4.90;77.70
9790;DHT22;4934;50.852;8.098;2024-03-02T07:27:39;4.90;1.00
9790;DHT22;4934;50.852;8.098;2024-03-02T07:30:05;5.00;1.00
9790;DHT22;4934;50.852;8.098;2024-03-02T07:32:31;5.00;1.00
9790;DHT22;4934;50.852;8.098;2024-03-02T07:34:56;5.20;1.00
9790;DHT22;4934;50.852;8.098;2024-03-02T07:37:23;5.20;1.00
9790;DHT22;4934;50.852;8.098;2024-03-02T07:39:49;5.30;1.00
9790;DHT22;4934;50.852;8.098;2024-03-02T07:42:14;5.40;1.00
9790;DHT22;4934;50.852;8.098;2024-03-02T07:44:40;5.50;1.00
9790;DHT22;4934;50.852;8.098;2024-03-02T07:47:06;5.60;99.90
9790;DHT22;4934;50.852;8.098;2024-03-02T07:49:32;5.70;99.90
9790;DHT22;4934;50.852;8.098;2024-03-02T07:51:57;5.70;99.90
9790;DHT22;4934;50.852;8.098;2024-03-02T07:54:24;5.80;1.00
9790;DHT22;4934;50.852;8.098;2024-03-02T07:56:49;5.80;1.00
9790;DHT22;4934;50.852;8.098;2024-03-02T07:59:15;5.80;99.90
9790;DHT22;4934;50.852;8.098;2024-03-02T08:01:41;5.80;99.90
9790;DHT22;4934;50.852;8.098;2024-03-02T08:04:07;5.80;99.90
9790;DHT22;4934;50.852;8.098;2024-03-02T08:06:32;5.80;99.90
9790;DHT22;4934;50.852;8.098;2024-03-02T08:08:59;5.80;99.90
9790;DHT22;4934;50.852;8.098;2024-03-02T08:11:25;5.90;99.90
9790;DHT22;4934;50.852;8.098;2024-03-02T08:13:52;5.90;22.30
9790;DHT22;4934;50.852;8.098;2024-03-02T08:16:21;5.90;1.00
9790;DHT22;4934;50.852;8.098;2024-03-02T08:18:51;5.90;99.90
9790;DHT22;4934;50.852;8.098;2024-03-02T08:21:17;6.00;99.90
9790;DHT22;4934;50.852;8.098;2024-03-02T08:23:43;6.20;1.00
9790;DHT22;4934;50.852;8.098;2024-03-02T08:26:09;6.30;1.00
9790;DHT22;4934;50.852;8.098;2024-03-02T08:28:35;6.30;1.00
9790;DHT22;4934;50.852;8.098;2024-03-02T08:31:03;6.50;1.00
9790;DHT22;4934;50.852;8.098;2024-03-02T08:33:28;6.60;99.90
9790;DHT22;4934;50.852;8.098;2024-03-02T08:35:54;6.70;99.90
9790;DHT22;4934;50.852;8.098;2024-03-02T08:38:20;6.80;99.90
9790;DHT22;4934;50.852;8.098;2024-03-02T08:40:46;6.90;69.40
9790;DHT22;4934;50.852;8.098;2024-03-02T08:43:11;7.00;1.00
9790;DHT22;4934;50.852;8.098;2024-03-02T08:45:37;7.00;1.00
9790;DHT22;4934;50.852;8.098;2024-03-02T08:48:06;7.10;1.00
9790;DHT22;4934;50.852;8.098;2024-03-02T08:50:33;7.20;99.90
9790;DHT22;4934;50.852;8.098;2024-03-02T08:52:59;7.20;99.90
9790;DHT22;4934;50.852;8.098;2024-03-02T08:55:24;7.20;1.00
9790;DHT22;4934;50.852;8.098;2024-03-02T08:57:50;7.30;99.90
9790;DHT22;4934;50.852;8.098;2024-03-02T09:00:16;7.50;99.90
9790;DHT22;4934;50.852;8.098;2024-03-02T09:02:44;7.50;69.40
9790;DHT22;4934;50.852;8.098;2024-03-02T09:05:10;7.50;99.90
9790;DHT22;4934;50.852;8.098;2024-03-02T09:07:35;7.60;99.90
9790;DHT22;4934;50.852;8.098;2024-03-02T09:10:01;7.60;1.00
9790;DHT22;4934;50.852;8.098;2024-03-02T09:12:26;7.70;1.00
9790;DHT22;4934;50.852;8.098;2024-03-02T09:14:52;7.70;1.00
9790;DHT22;4934;50.852;8.098;2024-03-02T09:17:18;7.80;1.00
9790;DHT22;4934;50.852;8.098;2024-03-02T09:19:43;7.90;1.00
9790;DHT22;4934;50.852;8.098;2024-03-02T09:22:09;8.10;1.00
9790;DHT22;4934;50.852;8.098;2024-03-02T09:24:35;8.20;1.00
9790;DHT22;4934;50.852;8.098;2024-03-02T09:27:00;8.40;1.00
9790;DHT22;4934;50.852;8.098;2024-03-02T09:29:26;8.40;1.00
9790;DHT22;4934;50.852;8.098;2024-03-02T09:31:51;8.50;1.00
9790;DHT22;4934;50.852;8.098;2024-03-02T09:34:18;8.60;1.00
9790;DHT22;4934;50.852;8.098;2024-03-02T09:36:44;8.70;99.90
9790;DHT22;4934;50.852;8.098;2024-03-02T09:39:10;8.80;99.90
9790;DHT22;4934;50.852;8.098;2024-03-02T09:41:38;8.80;99.90
9790;DHT22;4934;50.852;8.098;2024-03-02T09:44:07;8.90;99.90
9790;DHT22;4934;50.852;8.098;2024-03-02T09:46:33;9.10;99.90
9790;DHT22;4934;50.852;8.098;2024-03-02T09:49:01;9.30;99.90
9790;DHT22;4934;50.852;8.098;2024-03-02T09:51:26;9.40;99.90
9790;DHT22;4934;50.852;8.098;2024-03-02T09:53:52;9.50;99.90
9790;DHT22;4934;50.852;8.098;2024-03-02T09:56:20;9.60;99.90
9790;DHT22;4934;50.852;8.098;2024-03-02T09:58:46;9.70;99.90
9790;DHT22;4934;50.852;8.098;2024-03-02T10:01:13;9.80;99.90
9790;DHT22;4934;50.852;8.098;2024-03-02T10:03:39;9.90;20.60
9790;DHT22;4934;50.852;8.098;2024-03-02T10:06:24;9.90;99.90
9790;DHT22;4934;50.852;8.098;2024-03-02T10:08:51;10.00;1.00
9790;DHT22;4934;50.852;8.098;2024-03-02T10:11:31;10.20;99.90
9790;DHT22;4934;50.852;8.098;2024-03-02T10:14:11;10.30;52.80
9790;DHT22;4934;50.852;8.098;2024-03-02T10:16:43;10.50;1.00
9790;DHT22;4934;50.852;8.098;2024-03-02T10:21:42;10.40;1.00
9790;DHT22;4934;50.852;8.098;2024-03-02T10:24:08;10.40;1.00
9790;DHT22;4934;50.852;8.098;2024-03-02T10:26:33;10.30;1.00
9790;DHT22;4934;50.852;8.098;2024-03-02T10:28:59;10.30;1.00
9790;DHT22;4934;50.852;8.098;2024-03-02T10:31:25;10.30;1.00
9790;DHT22;4934;50.852;8.098;2024-03-02T10:33:54;10.20;1.00
9790;DHT22;4934;50.852;8.098;2024-03-02T10:36:20;10.20;1.00
9790;DHT22;4934;50.852;8.098;2024-03-02T10:38:46;10.30;1.00
9790;DHT22;4934;50.852;8.098;2024-03-02T10:41:23;10.40;1.00
9790;DHT22;4934;50.852;8.098;2024-03-02T10:43:51;10.40;1.00
9790;DHT22;4934;50.852;8.098;2024-03-02T10:46:19;10.50;11.90
9790;DHT22;4934;50.852;8.098;2024-03-02T10:48:46;10.60;1.00
9790;DHT22;4934;50.852;8.098;2024-03-02T10:51:12;10.70;24.20
9790;DHT22;4934;50.852;8.098;2024-03-02T10:53:37;10.90;95.20
9790;DHT22;4934;50.852;8.098;2024-03-02T10:56:07;10.90;1.00
9790;DHT22;4934;50.852;8.098;2024-03-02T10:58:33;11.00;12.90
9790;DHT22;4934;50.852;8.098;2024-03-02T11:01:02;11.10;1.00
9790;DHT22;4934;50.852;8.098;2024-03-02T11:03:33;11.30;1.00
9790;DHT22;4934;50.852;8.098;2024-03-02T11:05:59;11.40;1.00
9790;DHT22;4934;50.852;8.098;2024-03-02T11:08:26;11.60;1.00
9790;DHT22;4934;50.852;8.098;2024-03-02T11:11:05;11.70;1.00
9790;DHT22;4934;50.852;8.098;2024-03-02T11:13:33;11.80;1.00
9790;DHT22;4934;50.852;8.098;2024-03-02T11:16:19;11.90;1.00
9790;DHT22;4934;50.852;8.098;2024-03-02T11:18:46;12.00;1.00
9790;DHT22;4934;50.852;8.098;2024-03-02T11:21:15;12.10;1.00
9790;DHT22;4934;50.852;8.098;2024-03-02T11:23:41;12.20;1.00
9790;DHT22;4934;50.852;8.098;2024-03-02T11:26:21;12.30;99.90
9790;DHT22;4934;50.852;8.098;2024-03-02T11:28:51;12.50;99.90
9790;DHT22;4934;50.852;8.098;2024-03-02T11:31:17;12.70;98.30
9790;DHT22;4934;50.852;8.098;2024-03-02T11:33:43;12.70;73.50
9790;DHT22;4934;50.852;8.098;2024-03-02T11:36:09;12.90;81.10
9790;DHT22;4934;50.852;8.098;2024-03-02T11:38:35;12.80;44.40
9790;DHT22;4934;50.852;8.098;2024-03-02T11:41:11;12.80;77.60
9790;DHT22;4934;50.852;8.098;2024-03-02T11:43:40;13.00;59.60
9790;DHT22;4934;50.852;8.098;2024-03-02T11:46:07;13.10;17.90
9790;DHT22;4934;50.852;8.098;2024-03-02T11:48:34;13.10;9.20
9790;DHT22;4934;50.852;8.098;2024-03-02T11:51:00;13.30;22.30
9790;DHT22;4934;50.852;8.098;2024-03-02T11:53:27;13.30;18.10
9790;DHT22;4934;50.852;8.098;2024-03-02T11:55:55;13.40;1.00
9790;DHT22;4934;50.852;8.098;2024-03-02T11:58:21;13.50;7.10
9790;DHT22;4934;50.852;8.098;2024-03-02T12:00:53;13.50;1.00
9790;DHT22;4934;50.852;8.098;2024-03-02T12:03:24;13.60;1.00
9790;DHT22;4934;50.852;8.098;2024-03-02T12:05:54;13.70;1.00
9790;DHT22;4934;50.852;8.098;2024-03-02T12:08:21;13.80;1.00
9790;DHT22;4934;50.852;8.098;2024-03-02T12:10:58;13.80;1.00
9790;DHT22;4934;50.852;8.098;2024-03-02T12:13:23;13.80;1.00
9790;DHT22;4934;50.852;8.098;2024-03-02T12:15:53;13.80;1.00
9790;DHT22;4934;50.852;8.098;2024-03-02T12:18:20;13.80;1.00
9790;DHT22;4934;50.852;8.098;2024-03-02T12:20:46;13.80;1.00
9790;DHT22;4934;50.852;8.098;2024-03-02T12:23:14;13.90;1.00
9790;DHT22;4934;50.852;8.098;2024-03-02T12:25:39;13.90;1.00
9790;DHT22;4934;50.852;8.098;2024-03-02T12:28:06;13.90;1.00
9790;DHT22;4934;50.852;8.098;2024-03-02T12:30:35;13.80;1.00
9790;DHT22;4934;50.852;8.098;2024-03-02T12:33:00;13.90;1.00
9790;DHT22;4934;50.852;8.098;2024-03-02T12:35:26;13.90;1.00
9790;DHT22;4934;50.852;8.098;2024-03-02T12:37:53;14.00;1.00
9790;DHT22;4934;50.852;8.098;2024-03-02T12:40:20;14.20;1.00
9790;DHT22;4934;50.852;8.098;2024-03-02T12:42:47;14.20;1.00
9790;DHT22;4934;50.852;8.098;2024-03-02T12:45:15;14.30;1.00
9790;DHT22;4934;50.852;8.098;2024-03-02T12:47:41;14.30;1.00
9790;DHT22;4934;50.852;8.098;2024-03-02T12:50:09;14.30;1.00
9790;DHT22;4934;50.852;8.098;2024-03-02T12:52:35;14.50;1.00
9790;DHT22;4934;50.852;8.098;2024-03-02T12:55:02;14.60;1.00
9790;DHT22;4934;50.852;8.098;2024-03-02T12:57:30;14.80;1.00
9790;DHT22;4934;50.852;8.098;2024-03-02T13:00:03;15.00;1.00
9790;DHT22;4934;50.852;8.098;2024-03-02T13:02:36;15.00;1.00
9790;DHT22;4934;50.852;8.098;2024-03-02T13:05:02;15.10;1.00
9790;DHT22;4934;50.852;8.098;2024-03-02T13:07:29;15.20;1.00
9790;DHT22;4934;50.852;8.098;2024-03-02T13:09:55;15.20;1.00
9790;DHT22;4934;50.852;8.098;2024-03-02T13:12:22;15.20;1.00
9790;DHT22;4934;50.852;8.098;2024-03-02T13:14:51;15.20;1.00
9790;DHT22;4934;50.852;8.098;2024-03-02T13:17:18;15.10;1.00
9790;DHT22;4934;50.852;8.098;2024-03-02T13:19:55;15.10;1.00
9790;DHT22;4934;50.852;8.098;2024-03-02T13:22:20;14.90;1.00
9790;DHT22;4934;50.852;8.098;2024-03-02T13:24:47;14.90;1.00
9790;DHT22;4934;50.852;8.098;2024-03-02T13:27:13;14.90;1.00
9790;DHT22;4934;50.852;8.098;2024-03-02T13:29:39;14.90;1.00
9790;DHT22;4934;50.852;8.098;2024-03-02T13:32:05;14.90;1.00
9790;DHT22;4934;50.852;8.098;2024-03-02T13:34:30;14.70;1.00
9790;DHT22;4934;50.852;8.098;2024-03-02T13:36:56;14.70;1.00
9790;DHT22;4934;50.852;8.098;2024-03-02T13:39:21;14.60;1.00
9790;DHT22;4934;50.852;8.098;2024-03-02T13:41:48;14.50;1.00
9790;DHT22;4934;50.852;8.098;2024-03-02T13:44:20;14.50;1.00
9790;DHT22;4934;50.852;8.098;2024-03-02T13:46:47;14.50;1.00
9790;DHT22;4934;50.852;8.098;2024-03-02T13:49:14;14.40;1.00
9790;DHT22;4934;50.852;8.098;2024-03-02T13:51:42;14.40;1.00
9790;DHT22;4934;50.852;8.098;2024-03-02T13:54:08;14.40;1.00
9790;DHT22;4934;50.852;8.098;2024-03-02T13:56:34;14.40;1.00
9790;DHT22;4934;50.852;8.098;2024-03-02T13:58:59;14.40;1.00
9790;DHT22;4934;50.852;8.098;2024-03-02T14:01:25;14.30;1.00
9790;DHT22;4934;50.852;8.098;2024-03-02T14:03:52;14.30;1.00
9790;DHT22;4934;50.852;8.098;2024-03-02T14:06:20;14.30;1.00
9790;DHT22;4934;50.852;8.098;2024-03-02T14:08:45;14.20;1.00
9790;DHT22;4934;50.852;8.098;2024-03-02T14:11:14;14.30;1.00
9790;DHT22;4934;50.852;8.098;2024-03-02T14:13:43;14.20;1.00
9790;DHT22;4934;50.852;8.098;2024-03-02T14:16:13;14.10;1.00
9790;DHT22;4934;50.852;8.098;2024-03-02T14:18:39;14.00;1.00
9790;DHT22;4934;50.852;8.098;2024-03-02T14:21:05;14.00;1.00
9790;DHT22;4934;50.852;8.098;2024-03-02T14:23:30;14.00;1.00
9790;DHT22;4934;50.852;8.098;2024-03-02T14:25:56;14.10;1.00
9790;DHT22;4934;50.852;8.098;2024-03-02T14:28:22;14.10;1.00
9790;DHT22;4934;50.852;8.098;2024-03-02T14:30:48;14.20;1.00
9790;DHT22;4934;50.852;8.098;2024-03-02T14:33:13;14.20;1.00
9790;DHT22;4934;50.852;8.098;2024-03-02T14:35:40;14.10;1.00
9790;DHT22;4934;50.852;8.098;2024-03-02T14:38:06;14.10;1.00
9790;DHT22;4934;50.852;8.098;2024-03-02T14:40:32;14.10;1.00
9790;DHT22;4934;50.852;8.098;2024-03-02T14:42:58;14.10;1.00
9790;DHT22;4934;50.852;8.098;2024-03-02T14:45:24;14.00;1.00
9790;DHT22;4934;50.852;8.098;2024-03-02T14:47:50;13.90;1.00
9790;DHT22;4934;50.852;8.098;2024-03-02T14:50:15;13.90;1.00
9790;DHT22;4934;50.852;8.098;2024-03-02T14:52:42;13.90;1.00
9790;DHT22;4934;50.852;8.098;2024-03-02T14:55:07;13.70;1.00
9790;DHT22;4934;50.852;8.098;2024-03-02T14:57:33;13.50;1.00
9790;DHT22;4934;50.852;8.098;2024-03-02T14:59:59;13.30;1.00
9790;DHT22;4934;50.852;8.098;2024-03-02T15:02:24;13.30;1.00
9790;DHT22;4934;50.852;8.098;2024-03-02T15:04:50;13.30;1.00
9790;DHT22;4934;50.852;8.098;2024-03-02T15:07:16;13.20;1.00
9790;DHT22;4934;50.852;8.098;2024-03-02T15:09:42;13.30;1.00
9790;DHT22;4934;50.852;8.098;2024-03-02T15:12:07;13.30;1.00
9790;DHT22;4934;50.852;8.098;2024-03-02T15:14:38;13.20;1.00
9790;DHT22;4934;50.852;8.098;2024-03-02T15:17:06;13.10;1.00
9790;DHT22;4934;50.852;8.098;2024-03-02T15:19:32;13.00;1.00
9790;DHT22;4934;50.852;8.098;2024-03-02T15:21:57;12.90;1.00
9790;DHT22;4934;50.852;8.098;2024-03-02T15:24:23;12.90;1.00
9790;DHT22;4934;50.852;8.098;2024-03-02T15:26:52;12.80;1.00
9790;DHT22;4934;50.852;8.098;2024-03-02T15:29:17;12.80;1.00
9790;DHT22;4934;50.852;8.098;2024-03-02T15:31:43;12.80;1.00
9790;DHT22;4934;50.852;8.098;2024-03-02T15:34:09;12.70;1.00
9790;DHT22;4934;50.852;8.098;2024-03-02T15:36:35;12.70;1.00
9790;DHT22;4934;50.852;8.098;2024-03-02T15:39:01;12.80;1.00
9790;DHT22;4934;50.852;8.098;2024-03-02T15:41:28;12.80;1.00
9790;DHT22;4934;50.852;8.098;2024-03-02T15:43:53;12.70;1.00
9790;DHT22;4934;50.852;8.098;2024-03-02T15:46:19;12.60;1.00
9790;DHT22;4934;50.852;8.098;2024-03-02T15:48:45;12.70;1.00
9790;DHT22;4934;50.852;8.098;2024-03-02T15:51:10;12.70;1.00
9790;DHT22;4934;50.852;8.098;2024-03-02T15:53:37;12.60;1.00
9790;DHT22;4934;50.852;8.098;2024-03-02T15:56:03;12.60;1.00
9790;DHT22;4934;50.852;8.098;2024-03-02T15:58:29;12.70;1.00
9790;DHT22;4934;50.852;8.098;2024-03-02T16:00:55;12.60;1.00
9790;DHT22;4934;50.852;8.098;2024-03-02T16:03:21;12.60;1.00
9790;DHT22;4934;50.852;8.098;2024-03-02T16:05:46;12.50;1.00
9790;DHT22;4934;50.852;8.098;2024-03-02T16:08:12;12.50;1.00
9790;DHT22;4934;50.852;8.098;2024-03-02T16:10:37;12.40;1.00
9790;DHT22;4934;50.852;8.098;2024-03-02T16:13:03;12.40;1.00
9790;DHT22;4934;50.852;8.098;2024-03-02T16:15:29;12.20;1.00
9790;DHT22;4934;50.852;8.098;2024-03-02T16:17:55;12.20;1.00
9790;DHT22;4934;50.852;8.098;2024-03-02T16:20:21;12.10;1.00
9790;DHT22;4934;50.852;8.098;2024-03-02T16:22:47;11.90;1.00